createdAt,value
2017-07-19T00:00:28.197Z,0
2017-07-19T00:01:30.039Z,0
2017-07-19T00:02:33.301Z,0
2017-07-19T00:03:34.992Z,0
2017-07-19T00:04:36.641Z,0
2017-07-19T00:05:38.384Z,0
2017-07-19T00:06:40.053Z,0
2017-07-19T00:07:41.785Z,0
2017-07-19T00:08:43.445Z,0
2017-07-19T00:09:45.176Z,0
2017-07-19T00:10:46.830Z,0
2017-07-19T00:11:48.562Z,0
2017-07-19T00:12:50.213Z,0
2017-07-19T00:13:51.956Z,0
2017-07-19T00:14:53.605Z,0
2017-07-19T00:15:55.352Z,0
2017-07-19T00:16:56.998Z,0
2017-07-19T00:17:58.745Z,0
2017-07-19T00:19:00.392Z,0
2017-07-19T00:20:02.131Z,0
2017-07-19T00:21:03.789Z,0
2017-07-19T00:22:05.538Z,0
2017-07-19T00:23:07.209Z,0
2017-07-19T00:24:08.912Z,0
2017-07-19T00:25:10.584Z,0
2017-07-19T00:26:12.310Z,0
2017-07-19T00:27:13.966Z,0
2017-07-19T00:28:15.684Z,0
2017-07-19T00:29:17.338Z,0
2017-07-19T00:30:19.082Z,0
2017-07-19T00:31:20.740Z,0
2017-07-19T00:32:22.395Z,0
2017-07-19T00:33:24.039Z,0
2017-07-19T00:34:25.781Z,0
2017-07-19T00:35:27.440Z,0
2017-07-19T00:36:30.811Z,0
2017-07-19T00:37:32.463Z,0
2017-07-19T00:38:34.284Z,0
2017-07-19T00:39:35.933Z,0
2017-07-19T00:40:37.782Z,0
2017-07-19T00:41:39.433Z,0
2017-07-19T00:42:41.276Z,0
2017-07-19T00:43:42.924Z,0
2017-07-19T00:44:44.769Z,0
2017-07-19T00:45:46.416Z,0
2017-07-19T00:46:48.268Z,0
2017-07-19T00:47:49.920Z,0
2017-07-19T00:48:51.761Z,0
2017-07-19T00:49:53.417Z,0
2017-07-19T00:50:55.256Z,0
2017-07-19T00:51:56.906Z,0
2017-07-19T00:52:58.751Z,0
2017-07-19T00:54:00.398Z,0
2017-07-19T00:55:03.166Z,0
2017-07-19T00:56:04.815Z,0
2017-07-19T00:57:06.645Z,0
2017-07-19T00:58:08.309Z,0
2017-07-19T00:59:10.134Z,0
2017-07-19T01:00:11.797Z,0
2017-07-19T01:01:13.630Z,0
2017-07-19T01:02:15.277Z,0
2017-07-19T01:03:17.119Z,0
2017-07-19T01:04:18.779Z,0
2017-07-19T01:05:20.624Z,0
2017-07-19T01:06:22.266Z,0
2017-07-19T01:07:24.031Z,0
2017-07-19T01:08:25.699Z,0
2017-07-19T01:09:27.422Z,0
2017-07-19T01:10:29.066Z,0
2017-07-19T01:11:30.820Z,0
2017-07-19T01:12:32.481Z,0
2017-07-19T01:13:34.284Z,0
2017-07-19T01:14:35.943Z,0
2017-07-19T01:15:37.784Z,0
2017-07-19T01:16:39.429Z,0
2017-07-19T01:17:41.290Z,0
2017-07-19T01:18:42.943Z,0
2017-07-19T01:19:44.789Z,0
2017-07-19T01:20:46.435Z,0
2017-07-19T01:21:48.293Z,0
2017-07-19T01:22:49.941Z,0
2017-07-19T01:23:51.781Z,0
2017-07-19T01:24:53.429Z,0
2017-07-19T01:25:55.302Z,0
2017-07-19T01:26:56.958Z,0
2017-07-19T01:27:58.771Z,0
2017-07-19T01:29:00.419Z,0
2017-07-19T01:30:02.266Z,0
2017-07-19T01:31:03.913Z,0
2017-07-19T01:32:05.762Z,0
2017-07-19T01:33:07.410Z,0
2017-07-19T01:34:09.264Z,0
2017-07-19T01:35:10.933Z,0
2017-07-19T01:36:12.757Z,0
2017-07-19T01:37:14.416Z,0
2017-07-19T01:38:16.242Z,0
2017-07-19T01:39:17.888Z,0
2017-07-19T01:40:19.747Z,0
2017-07-19T01:41:21.414Z,0
2017-07-19T01:42:23.232Z,0
2017-07-19T01:43:24.879Z,0
2017-07-19T01:44:26.726Z,0
2017-07-19T01:45:28.382Z,0
2017-07-19T01:46:30.220Z,0
2017-07-19T01:47:31.873Z,0
2017-07-19T01:48:33.723Z,0
2017-07-19T01:49:35.377Z,0
2017-07-19T01:50:37.106Z,0
2017-07-19T01:51:38.754Z,0
2017-07-19T01:52:40.618Z,0
2017-07-19T01:53:42.277Z,0
2017-07-19T01:54:43.998Z,0
2017-07-19T01:55:45.642Z,0
2017-07-19T01:56:47.393Z,0
2017-07-19T01:57:49.039Z,0
2017-07-19T01:58:50.793Z,0
2017-07-19T01:59:52.457Z,0
2017-07-19T02:00:54.177Z,0
2017-07-19T02:01:55.833Z,0
2017-07-19T02:02:57.575Z,0
2017-07-19T02:03:59.238Z,0
2017-07-19T02:05:00.965Z,0
2017-07-19T02:06:02.612Z,0
2017-07-19T02:07:04.357Z,0
2017-07-19T02:08:06.008Z,0
2017-07-19T02:09:07.750Z,0
2017-07-19T02:10:09.398Z,0
2017-07-19T02:11:11.149Z,0
2017-07-19T02:12:12.795Z,0
2017-07-19T02:13:14.539Z,0
2017-07-19T02:14:16.191Z,0
2017-07-19T02:15:17.929Z,0
2017-07-19T02:16:19.582Z,0
2017-07-19T02:17:21.329Z,0
2017-07-19T02:18:23.018Z,0
2017-07-19T02:19:24.723Z,0
2017-07-19T02:20:26.371Z,0
2017-07-19T02:21:28.106Z,0
2017-07-19T02:22:29.758Z,0
2017-07-19T02:23:31.498Z,0
2017-07-19T02:24:33.148Z,0
2017-07-19T02:25:34.894Z,0
2017-07-19T02:26:36.542Z,0
2017-07-19T02:27:38.286Z,0
2017-07-19T02:28:39.933Z,0
2017-07-19T02:29:41.676Z,0
2017-07-19T02:30:43.334Z,0
2017-07-19T02:31:45.122Z,0
2017-07-19T02:32:46.773Z,0
2017-07-19T02:33:48.441Z,0
2017-07-19T02:34:50.089Z,0
2017-07-19T02:35:51.853Z,0
2017-07-19T02:36:53.503Z,0
2017-07-19T02:37:55.230Z,0
2017-07-19T02:38:56.878Z,0
2017-07-19T02:39:58.747Z,0
2017-07-19T02:41:00.407Z,0
2017-07-19T02:42:02.136Z,0
2017-07-19T02:43:03.841Z,0
2017-07-19T02:44:05.523Z,0
2017-07-19T02:45:07.170Z,0
2017-07-19T02:46:08.908Z,0
2017-07-19T02:47:10.563Z,0
2017-07-19T02:48:12.301Z,0
2017-07-19T02:49:13.945Z,0
2017-07-19T02:50:15.718Z,0
2017-07-19T02:51:17.380Z,0
2017-07-19T02:52:19.088Z,0
2017-07-19T02:53:20.737Z,0
2017-07-19T02:54:22.481Z,0
2017-07-19T02:55:24.126Z,0
2017-07-19T02:56:25.898Z,0
2017-07-19T02:57:27.548Z,4
2017-07-19T02:58:29.265Z,4
2017-07-19T02:59:30.912Z,4
2017-07-19T03:00:32.661Z,0
2017-07-19T03:01:34.330Z,4
2017-07-19T03:02:36.049Z,4
2017-07-19T03:03:37.696Z,4
2017-07-19T03:04:39.546Z,4
2017-07-19T03:05:41.197Z,4
2017-07-19T03:06:42.937Z,4
2017-07-19T03:07:44.590Z,8
2017-07-19T03:08:46.351Z,8
2017-07-19T03:09:48.000Z,8
2017-07-19T03:10:49.725Z,8
2017-07-19T03:11:52.867Z,12
2017-07-19T03:12:54.519Z,8
2017-07-19T03:13:56.322Z,12
2017-07-19T03:14:57.973Z,16
2017-07-19T03:15:59.713Z,16
2017-07-19T03:17:01.361Z,20
2017-07-19T03:18:03.110Z,20
2017-07-19T03:19:04.766Z,24
2017-07-19T03:20:06.522Z,28
2017-07-19T03:21:08.156Z,32
2017-07-19T03:22:09.891Z,32
2017-07-19T03:23:11.544Z,36
2017-07-19T03:24:13.281Z,40
2017-07-19T03:25:14.928Z,48
2017-07-19T03:26:16.682Z,52
2017-07-19T03:27:18.326Z,52
2017-07-19T03:28:20.066Z,60
2017-07-19T03:29:21.735Z,64
2017-07-19T03:30:23.462Z,64
2017-07-19T03:31:25.118Z,72
2017-07-19T03:32:26.859Z,76
2017-07-19T03:33:28.503Z,84
2017-07-19T03:34:30.246Z,92
2017-07-19T03:35:31.899Z,100
2017-07-19T03:36:33.667Z,108
2017-07-19T03:37:35.321Z,120
2017-07-19T03:38:36.987Z,128
2017-07-19T03:39:38.638Z,140
2017-07-19T03:40:40.424Z,148
2017-07-19T03:41:42.079Z,160
2017-07-19T03:42:43.772Z,168
2017-07-19T03:43:45.427Z,184
2017-07-19T03:44:47.211Z,196
2017-07-19T03:45:48.858Z,208
2017-07-19T03:46:50.610Z,220
2017-07-19T03:47:52.257Z,236
2017-07-19T03:48:54.012Z,252
2017-07-19T03:49:55.664Z,268
2017-07-19T03:50:57.391Z,284
2017-07-19T03:51:59.045Z,304
2017-07-19T03:53:00.787Z,320
2017-07-19T03:54:02.440Z,340
2017-07-19T03:55:04.194Z,356
2017-07-19T03:56:05.861Z,376
2017-07-19T03:57:07.677Z,400
2017-07-19T03:58:09.326Z,420
2017-07-19T03:59:11.079Z,440
2017-07-19T04:00:12.741Z,464
2017-07-19T04:01:14.475Z,476
2017-07-19T04:02:16.127Z,488
2017-07-19T04:03:17.869Z,504
2017-07-19T04:04:19.543Z,516
2017-07-19T04:05:21.353Z,532
2017-07-19T04:06:23.011Z,556
2017-07-19T04:07:24.747Z,576
2017-07-19T04:08:26.393Z,592
2017-07-19T04:09:28.141Z,612
2017-07-19T04:10:29.790Z,640
2017-07-19T04:11:31.580Z,668
2017-07-19T04:12:33.238Z,704
2017-07-19T04:13:35.029Z,728
2017-07-19T04:14:36.681Z,752
2017-07-19T04:15:38.435Z,772
2017-07-19T04:16:40.084Z,788
2017-07-19T04:17:41.956Z,808
2017-07-19T04:18:43.611Z,828
2017-07-19T04:19:45.448Z,844
2017-07-19T04:20:47.101Z,860
2017-07-19T04:21:48.843Z,880
2017-07-19T04:22:50.490Z,900
2017-07-19T04:23:52.339Z,908
2017-07-19T04:24:53.990Z,916
2017-07-19T04:25:55.849Z,920
2017-07-19T04:26:57.504Z,932
2017-07-19T04:27:59.327Z,948
2017-07-19T04:29:00.979Z,968
2017-07-19T04:30:02.833Z,988
2017-07-19T04:31:04.526Z,1012
2017-07-19T04:32:06.307Z,1036
2017-07-19T04:33:07.963Z,1056
2017-07-19T04:34:09.760Z,1080
2017-07-19T04:35:11.419Z,1108
2017-07-19T04:36:13.152Z,1148
2017-07-19T04:37:14.860Z,1184
2017-07-19T04:38:16.651Z,1224
2017-07-19T04:39:18.298Z,1244
2017-07-19T04:40:20.051Z,1272
2017-07-19T04:41:21.717Z,1292
2017-07-19T04:42:24.456Z,1324
2017-07-19T04:43:26.108Z,1352
2017-07-19T04:44:27.861Z,1388
2017-07-19T04:45:29.508Z,1416
2017-07-19T04:46:31.239Z,1444
2017-07-19T04:47:32.892Z,1476
2017-07-19T04:48:34.634Z,1496
2017-07-19T04:49:36.299Z,1520
2017-07-19T04:50:38.027Z,1544
2017-07-19T04:51:39.688Z,1568
2017-07-19T04:52:41.419Z,1608
2017-07-19T04:53:43.069Z,1656
2017-07-19T04:54:44.811Z,1700
2017-07-19T04:55:46.468Z,1740
2017-07-19T04:56:48.122Z,1768
2017-07-19T04:57:49.849Z,1800
2017-07-19T04:58:51.508Z,1824
2017-07-19T04:59:53.242Z,1848
2017-07-19T05:00:54.900Z,1876
2017-07-19T05:01:56.635Z,1908
2017-07-19T05:02:58.297Z,1936
2017-07-19T05:04:00.027Z,1944
2017-07-19T05:05:01.735Z,1976
2017-07-19T05:06:03.523Z,1992
2017-07-19T05:07:05.184Z,2016
2017-07-19T05:08:07.938Z,2056
2017-07-19T05:09:09.596Z,2084
2017-07-19T05:10:11.343Z,2088
2017-07-19T05:11:12.990Z,2096
2017-07-19T05:12:14.658Z,2100
2017-07-19T05:13:16.442Z,2132
2017-07-19T05:14:18.106Z,2148
2017-07-19T05:15:19.948Z,2128
2017-07-19T05:16:21.601Z,2188
2017-07-19T05:17:23.320Z,2172
2017-07-19T05:18:24.993Z,2192
2017-07-19T05:19:26.725Z,2232
2017-07-19T05:20:28.376Z,2272
2017-07-19T05:21:30.052Z,2324
2017-07-19T05:22:31.830Z,2396
2017-07-19T05:23:33.493Z,2484
2017-07-19T05:24:35.252Z,2468
2017-07-19T05:25:36.917Z,2456
2017-07-19T05:26:38.635Z,2456
2017-07-19T05:27:40.285Z,2468
2017-07-19T05:28:41.954Z,2464
2017-07-19T05:29:43.617Z,2472
2017-07-19T05:30:45.331Z,2452
2017-07-19T05:31:46.985Z,2420
2017-07-19T05:32:48.701Z,2388
2017-07-19T05:33:50.399Z,2352
2017-07-19T05:34:52.107Z,2316
2017-07-19T05:35:53.762Z,2304
2017-07-19T05:36:55.494Z,2284
2017-07-19T05:37:57.175Z,2292
2017-07-19T05:38:58.940Z,2280
2017-07-19T05:40:00.580Z,2248
2017-07-19T05:41:02.278Z,2172
2017-07-19T05:42:03.927Z,2100
2017-07-19T05:43:05.679Z,2044
2017-07-19T05:44:07.332Z,2028
2017-07-19T05:45:09.002Z,2052
2017-07-19T05:46:10.714Z,2076
2017-07-19T05:47:14.039Z,2072
2017-07-19T05:48:15.768Z,2044
2017-07-19T05:49:17.427Z,1996
2017-07-19T05:50:19.152Z,1940
2017-07-19T05:51:20.803Z,1892
2017-07-19T05:52:22.551Z,1896
2017-07-19T05:53:24.259Z,1928
2017-07-19T05:54:26.046Z,2000
2017-07-19T05:55:27.691Z,2088
2017-07-19T05:56:29.571Z,2164
2017-07-19T05:57:31.333Z,2228
2017-07-19T05:58:33.096Z,2300
2017-07-19T05:59:34.870Z,2352
2017-07-19T06:00:36.670Z,2380
2017-07-19T06:01:38.426Z,2404
2017-07-19T06:02:40.412Z,2420
2017-07-19T06:03:42.154Z,2432
2017-07-19T06:04:44.048Z,2440
2017-07-19T06:05:45.818Z,2448
2017-07-19T06:06:47.761Z,2456
2017-07-19T06:07:49.493Z,2472
2017-07-19T06:08:52.343Z,2496
2017-07-19T06:09:54.079Z,2508
2017-07-19T06:10:55.933Z,2512
2017-07-19T06:11:57.673Z,2524
2017-07-19T06:12:59.470Z,2540
2017-07-19T06:14:01.278Z,2552
2017-07-19T06:15:03.183Z,2556
2017-07-19T06:16:05.115Z,2552
2017-07-19T06:17:07.231Z,2536
2017-07-19T06:18:10.103Z,2532
2017-07-19T06:19:11.941Z,2516
2017-07-19T06:20:13.691Z,2496
2017-07-19T06:21:15.489Z,2472
2017-07-19T06:22:17.340Z,2480
2017-07-19T06:23:19.029Z,2496
2017-07-19T06:24:20.877Z,2504
2017-07-19T06:25:22.639Z,2508
2017-07-19T06:26:24.417Z,2508
2017-07-19T06:27:26.242Z,2508
2017-07-19T06:28:27.973Z,2500
2017-07-19T06:29:29.782Z,2492
2017-07-19T06:30:31.596Z,2496
2017-07-19T06:31:33.388Z,2508
2017-07-19T06:32:35.088Z,2516
2017-07-19T06:33:36.870Z,2516
2017-07-19T06:34:38.652Z,2516
2017-07-19T06:35:40.542Z,2516
2017-07-19T06:36:42.297Z,2512
2017-07-19T06:37:43.983Z,2512
2017-07-19T06:38:45.817Z,2504
2017-07-19T06:39:47.479Z,2496
2017-07-19T06:40:49.321Z,2484
2017-07-19T06:41:50.997Z,2484
2017-07-19T06:42:52.766Z,2476
2017-07-19T06:43:54.498Z,2464
2017-07-19T06:44:56.226Z,2452
2017-07-19T06:45:58.025Z,2448
2017-07-19T06:46:59.774Z,2444
2017-07-19T06:48:02.653Z,2444
2017-07-19T06:49:04.451Z,2444
2017-07-19T06:50:06.399Z,2444
2017-07-19T06:51:08.169Z,2440
2017-07-19T06:52:10.037Z,2436
2017-07-19T06:53:11.751Z,2448
2017-07-19T06:54:13.630Z,2452
2017-07-19T06:55:15.423Z,2468
2017-07-19T06:56:18.209Z,2480
2017-07-19T06:57:19.990Z,2488
2017-07-19T06:58:21.842Z,2500
2017-07-19T06:59:23.584Z,2504
2017-07-19T07:00:25.422Z,2512
2017-07-19T07:01:27.209Z,2524
2017-07-19T07:02:29.017Z,2524
2017-07-19T07:03:30.806Z,2548
2017-07-19T07:04:32.697Z,2560
2017-07-19T07:05:34.483Z,2576
2017-07-19T07:06:36.222Z,2596
2017-07-19T07:07:38.088Z,2596
2017-07-19T07:08:39.947Z,2596
2017-07-19T07:09:41.977Z,2596
2017-07-19T07:10:48.724Z,2596
2017-07-19T07:11:50.608Z,2580
2017-07-19T07:12:54.497Z,2568
2017-07-19T07:13:56.373Z,2548
2017-07-19T07:14:58.409Z,2532
2017-07-19T07:16:00.171Z,2528
2017-07-19T07:17:02.019Z,2540
2017-07-19T07:18:03.864Z,2540
2017-07-19T07:19:05.718Z,2548
2017-07-19T07:20:07.489Z,2540
2017-07-19T07:21:09.367Z,2536
2017-07-19T07:22:11.169Z,2544
2017-07-19T07:23:13.059Z,2556
2017-07-19T07:24:14.919Z,2568
2017-07-19T07:25:16.703Z,2568
2017-07-19T07:26:18.520Z,2584
2017-07-19T07:27:20.376Z,2604
2017-07-19T07:28:22.100Z,2628
2017-07-19T07:29:23.782Z,2660
2017-07-19T07:30:25.531Z,2688
2017-07-19T07:31:27.403Z,2720
2017-07-19T07:32:29.223Z,2732
2017-07-19T07:33:31.093Z,2736
2017-07-19T07:34:32.904Z,2744
2017-07-19T07:35:34.798Z,2740
2017-07-19T07:36:36.619Z,2740
2017-07-19T07:37:38.482Z,2748
2017-07-19T07:38:40.253Z,2752
2017-07-19T07:39:42.164Z,2756
2017-07-19T07:40:44.221Z,2756
2017-07-19T07:41:46.015Z,2760
2017-07-19T07:42:47.829Z,2752
2017-07-19T07:43:49.624Z,2760
2017-07-19T07:44:51.504Z,2768
2017-07-19T07:45:53.321Z,2780
2017-07-19T07:46:55.185Z,2780
2017-07-19T07:47:56.919Z,2800
2017-07-19T07:48:58.759Z,2812
2017-07-19T07:50:00.605Z,2816
2017-07-19T07:51:02.380Z,2804
2017-07-19T07:52:04.204Z,2788
2017-07-19T07:53:06.040Z,2776
2017-07-19T07:54:07.829Z,2780
2017-07-19T07:55:09.637Z,2788
2017-07-19T07:56:11.458Z,2788
2017-07-19T07:57:13.211Z,2776
2017-07-19T07:58:14.967Z,2748
2017-07-19T07:59:16.666Z,2720
2017-07-19T08:00:18.548Z,2720
2017-07-19T08:01:20.418Z,2700
2017-07-19T08:02:22.282Z,2692
2017-07-19T08:03:24.013Z,2676
2017-07-19T08:04:25.789Z,2664
2017-07-19T08:05:27.679Z,2652
2017-07-19T08:06:29.439Z,2648
2017-07-19T08:07:31.369Z,2648
2017-07-19T08:08:33.166Z,2648
2017-07-19T08:09:37.071Z,2656
2017-07-19T08:10:38.873Z,2660
2017-07-19T08:11:42.741Z,2664
2017-07-19T08:12:44.540Z,2660
2017-07-19T08:13:46.462Z,2652
2017-07-19T08:14:48.331Z,2652
2017-07-19T08:15:50.204Z,2660
2017-07-19T08:16:52.133Z,2672
2017-07-19T08:17:55.050Z,2692
2017-07-19T08:19:59.532Z,2716
2017-07-19T08:21:01.315Z,2744
2017-07-19T08:22:03.098Z,2752
2017-07-19T08:23:04.826Z,2764
2017-07-19T08:24:06.547Z,2792
2017-07-19T08:25:08.298Z,2808
2017-07-19T08:26:10.129Z,2820
2017-07-19T08:27:11.861Z,2836
2017-07-19T08:28:13.748Z,2844
2017-07-19T08:29:15.557Z,2868
2017-07-19T08:30:17.286Z,2880
2017-07-19T08:31:19.075Z,2892
2017-07-19T08:32:20.820Z,2908
2017-07-19T08:33:22.580Z,2928
2017-07-19T08:34:24.355Z,2964
2017-07-19T08:35:26.267Z,3000
2017-07-19T08:36:28.059Z,3040
2017-07-19T08:37:29.968Z,3052
2017-07-19T08:38:31.757Z,3104
2017-07-19T08:39:33.746Z,3144
2017-07-19T08:40:35.550Z,3160
2017-07-19T08:41:37.371Z,3180
2017-07-19T08:42:39.177Z,3168
2017-07-19T08:43:41.071Z,3164
2017-07-19T08:44:42.883Z,3168
2017-07-19T08:45:44.694Z,3172
2017-07-19T08:46:46.502Z,3184
2017-07-19T08:47:48.408Z,3224
2017-07-19T08:48:50.153Z,3248
2017-07-19T08:49:52.042Z,3256
2017-07-19T08:50:53.805Z,3288
2017-07-19T08:51:55.658Z,3304
2017-07-19T08:52:57.540Z,3340
2017-07-19T08:53:59.508Z,3316
2017-07-19T08:55:01.325Z,3316
2017-07-19T08:56:03.169Z,3336
2017-07-19T08:57:04.943Z,3340
2017-07-19T08:58:06.728Z,3320
2017-07-19T08:59:08.595Z,3280
2017-07-19T09:00:10.425Z,3240
2017-07-19T09:01:12.289Z,3188
2017-07-19T09:02:14.062Z,3132
2017-07-19T09:03:15.918Z,3040
2017-07-19T09:04:17.714Z,2964
2017-07-19T09:05:19.611Z,2924
2017-07-19T09:06:21.381Z,2916
2017-07-19T09:07:23.158Z,2956
2017-07-19T09:08:24.957Z,2924
2017-07-19T09:09:26.775Z,2876
2017-07-19T09:10:28.721Z,2824
2017-07-19T09:11:30.588Z,2744
2017-07-19T09:12:32.457Z,2692
2017-07-19T09:13:34.343Z,2656
2017-07-19T09:14:37.286Z,2664
2017-07-19T09:15:39.180Z,2692
2017-07-19T09:16:41.139Z,2756
2017-07-19T09:17:42.994Z,2828
2017-07-19T09:18:46.807Z,2872
2017-07-19T09:19:48.582Z,2872
2017-07-19T09:20:50.401Z,2848
2017-07-19T09:21:52.184Z,2828
2017-07-19T09:22:54.098Z,2824
2017-07-19T09:23:55.944Z,2808
2017-07-19T09:24:57.837Z,2840
2017-07-19T09:25:59.642Z,2820
2017-07-19T09:27:01.398Z,2772
2017-07-19T09:28:03.297Z,2724
2017-07-19T09:29:05.130Z,2700
2017-07-19T09:30:06.986Z,2664
2017-07-19T09:31:08.820Z,2632
2017-07-19T09:32:10.650Z,2596
2017-07-19T09:33:12.415Z,2556
2017-07-19T09:34:14.251Z,2520
2017-07-19T09:35:16.024Z,2484
2017-07-19T09:36:17.837Z,2460
2017-07-19T09:37:19.592Z,2436
2017-07-19T09:38:21.433Z,2408
2017-07-19T09:39:23.219Z,2364
2017-07-19T09:40:24.986Z,2336
2017-07-19T09:41:26.743Z,2308
2017-07-19T09:42:28.497Z,2332
2017-07-19T09:43:30.257Z,2328
2017-07-19T09:44:32.106Z,2304
2017-07-19T09:45:33.897Z,2280
2017-07-19T09:46:35.816Z,2256
2017-07-19T09:47:37.586Z,2232
2017-07-19T09:48:39.461Z,2216
2017-07-19T09:49:41.249Z,2204
2017-07-19T09:50:43.156Z,2192
2017-07-19T09:51:44.977Z,2176
2017-07-19T09:52:46.724Z,2156
2017-07-19T09:53:48.527Z,2136
2017-07-19T09:54:50.394Z,2116
2017-07-19T09:55:52.239Z,2092
2017-07-19T09:56:54.118Z,2064
2017-07-19T09:57:55.946Z,2044
2017-07-19T09:58:57.656Z,2024
2017-07-19T09:59:59.552Z,2004
2017-07-19T10:01:01.444Z,1988
2017-07-19T10:02:03.243Z,1964
2017-07-19T10:03:05.025Z,1944
2017-07-19T10:04:06.878Z,1912
2017-07-19T10:05:08.636Z,1884
2017-07-19T10:06:10.399Z,1856
2017-07-19T10:07:12.172Z,1816
2017-07-19T10:08:14.056Z,1776
2017-07-19T10:09:15.891Z,1740
2017-07-19T10:10:17.697Z,1704
2017-07-19T10:11:19.503Z,1656
2017-07-19T10:12:21.264Z,1592
2017-07-19T10:13:23.001Z,1536
2017-07-19T10:14:24.767Z,1508
2017-07-19T10:15:26.571Z,1504
2017-07-19T10:16:28.408Z,1512
2017-07-19T10:17:30.192Z,1532
2017-07-19T10:18:32.029Z,1548
2017-07-19T10:19:33.791Z,1572
2017-07-19T10:20:35.598Z,1588
2017-07-19T10:21:37.449Z,1592
2017-07-19T10:22:39.226Z,1588
2017-07-19T10:23:40.984Z,1600
2017-07-19T10:24:42.807Z,1608
2017-07-19T10:25:44.606Z,1616
2017-07-19T10:26:46.430Z,1624
2017-07-19T10:27:48.244Z,1624
2017-07-19T10:28:50.054Z,1628
2017-07-19T10:29:51.854Z,1636
2017-07-19T10:30:53.553Z,1624
2017-07-19T10:31:55.403Z,1628
2017-07-19T10:32:57.169Z,1636
2017-07-19T10:33:59.795Z,1640
2017-07-19T10:35:01.557Z,1644
2017-07-19T10:36:03.251Z,1648
2017-07-19T10:37:05.055Z,1640
2017-07-19T10:38:06.733Z,1632
2017-07-19T10:39:08.624Z,1624
2017-07-19T10:40:10.427Z,1612
2017-07-19T10:41:12.335Z,1608
2017-07-19T10:42:14.153Z,1612
2017-07-19T10:43:16.103Z,1612
2017-07-19T10:44:17.895Z,1612
2017-07-19T10:45:19.630Z,1612
2017-07-19T10:46:21.440Z,1612
2017-07-19T10:47:23.272Z,1608
2017-07-19T10:48:25.107Z,1596
2017-07-19T10:49:26.949Z,1596
2017-07-19T10:50:28.757Z,1596
2017-07-19T10:51:30.548Z,1596
2017-07-19T10:52:32.391Z,1592
2017-07-19T10:53:34.239Z,1600
2017-07-19T10:54:36.067Z,1600
2017-07-19T10:55:37.910Z,1600
2017-07-19T10:56:39.711Z,1600
2017-07-19T10:57:41.474Z,1600
2017-07-19T10:58:43.324Z,1596
2017-07-19T10:59:45.269Z,1588
2017-07-19T11:00:47.041Z,1588
2017-07-19T11:01:48.864Z,1584
2017-07-19T11:02:50.649Z,1580
2017-07-19T11:03:52.485Z,1576
2017-07-19T11:04:54.365Z,1580
2017-07-19T11:05:56.304Z,1588
2017-07-19T11:06:58.093Z,1588
2017-07-19T11:07:59.967Z,1584
2017-07-19T11:09:01.743Z,1596
2017-07-19T11:10:03.554Z,1612
2017-07-19T11:11:05.376Z,1648
2017-07-19T11:12:07.237Z,1664
2017-07-19T11:13:09.045Z,1688
2017-07-19T11:14:10.929Z,1784
2017-07-19T11:15:12.619Z,1868
2017-07-19T11:16:14.452Z,1580
2017-07-19T11:17:16.234Z,1536
2017-07-19T11:18:18.016Z,1684
2017-07-19T11:19:19.778Z,1680
2017-07-19T11:20:21.514Z,1636
2017-07-19T11:21:23.293Z,1644
2017-07-19T11:22:25.087Z,1716
2017-07-19T11:23:26.868Z,1712
2017-07-19T11:24:28.627Z,1700
2017-07-19T11:25:30.354Z,1704
2017-07-19T11:26:32.221Z,1700
2017-07-19T11:27:33.916Z,1676
2017-07-19T11:28:35.757Z,1696
2017-07-19T11:29:37.577Z,1668
2017-07-19T11:30:39.419Z,1624
2017-07-19T11:31:41.197Z,1580
2017-07-19T11:32:43.086Z,1524
2017-07-19T11:33:44.826Z,1420
2017-07-19T11:34:46.726Z,1320
2017-07-19T11:35:48.529Z,1324
2017-07-19T11:36:50.394Z,1276
2017-07-19T11:37:52.302Z,1204
2017-07-19T11:38:54.250Z,1176
2017-07-19T11:39:56.057Z,1224
2017-07-19T11:40:57.910Z,1224
2017-07-19T11:41:59.749Z,1324
2017-07-19T11:43:01.680Z,1400
2017-07-19T11:44:03.452Z,1556
2017-07-19T11:45:05.322Z,1672
2017-07-19T11:46:07.145Z,1788
2017-07-19T11:47:09.054Z,1892
2017-07-19T11:48:10.893Z,1976
2017-07-19T11:49:12.787Z,2000
2017-07-19T11:50:14.652Z,2032
2017-07-19T11:51:16.546Z,2060
2017-07-19T11:52:18.404Z,2092
2017-07-19T11:53:20.247Z,2092
2017-07-19T11:54:22.048Z,2104
2017-07-19T11:55:23.828Z,2100
2017-07-19T11:56:25.937Z,2096
2017-07-19T11:57:27.738Z,2104
2017-07-19T11:58:29.583Z,2100
2017-07-19T11:59:31.420Z,2092
2017-07-19T12:00:34.350Z,2064
2017-07-19T12:01:36.065Z,2044
2017-07-19T12:02:37.897Z,2024
2017-07-19T12:03:39.719Z,2000
2017-07-19T12:04:41.511Z,1988
2017-07-19T12:05:43.297Z,1956
2017-07-19T12:06:45.166Z,1944
2017-07-19T12:07:46.994Z,1936
2017-07-19T12:08:48.875Z,1924
2017-07-19T12:09:50.674Z,1904
2017-07-19T12:10:52.407Z,1884
2017-07-19T12:11:54.220Z,1876
2017-07-19T12:12:56.023Z,1688
2017-07-19T12:13:57.910Z,1832
2017-07-19T12:14:59.750Z,2072
2017-07-19T12:16:01.431Z,2096
2017-07-19T12:17:06.080Z,2020
2017-07-19T12:18:09.278Z,2020
2017-07-19T12:19:11.037Z,1904
2017-07-19T12:20:12.741Z,1848
2017-07-19T12:21:14.448Z,1820
2017-07-19T12:22:16.198Z,1840
2017-07-19T12:23:18.006Z,1860
2017-07-19T12:24:19.927Z,1832
2017-07-19T12:25:21.773Z,1848
2017-07-19T12:26:23.612Z,1864
2017-07-19T12:27:25.486Z,1908
2017-07-19T12:28:27.223Z,1936
2017-07-19T12:29:29.021Z,1980
2017-07-19T12:30:30.906Z,2012
2017-07-19T12:31:32.664Z,2060
2017-07-19T12:32:34.536Z,2080
2017-07-19T12:33:36.400Z,2100
2017-07-19T12:34:38.279Z,2108
2017-07-19T12:35:40.156Z,2140
2017-07-19T12:36:42.027Z,2124
2017-07-19T12:37:43.836Z,2108
2017-07-19T12:38:45.655Z,2172
2017-07-19T12:39:47.503Z,2132
2017-07-19T12:40:49.439Z,2116
2017-07-19T12:41:51.195Z,2036
2017-07-19T12:42:52.978Z,2024
2017-07-19T12:43:54.772Z,2052
2017-07-19T12:44:56.572Z,2088
2017-07-19T12:45:58.440Z,2004
2017-07-19T12:47:00.250Z,1944
2017-07-19T12:48:02.026Z,1888
2017-07-19T12:49:03.854Z,1896
2017-07-19T12:50:05.669Z,1864
2017-07-19T12:51:07.503Z,1872
2017-07-19T12:52:09.277Z,1876
2017-07-19T12:53:11.083Z,1876
2017-07-19T12:54:12.831Z,1920
2017-07-19T12:55:14.655Z,1980
2017-07-19T12:56:16.361Z,2036
2017-07-19T12:57:18.115Z,2064
2017-07-19T12:58:19.946Z,2088
2017-07-19T12:59:21.744Z,2128
2017-07-19T13:00:23.537Z,2172
2017-07-19T13:01:25.314Z,2248
2017-07-19T13:02:27.108Z,2312
2017-07-19T13:03:28.913Z,2360
2017-07-19T13:04:30.734Z,2388
2017-07-19T13:05:32.593Z,2364
2017-07-19T13:06:34.405Z,2324
2017-07-19T13:07:36.273Z,2260
2017-07-19T13:08:38.102Z,2180
2017-07-19T13:09:40.020Z,2120
2017-07-19T13:10:41.826Z,2056
2017-07-19T13:11:43.587Z,1988
2017-07-19T13:12:45.428Z,1920
2017-07-19T13:13:47.246Z,1712
2017-07-19T13:14:49.115Z,1632
2017-07-19T13:15:50.921Z,1684
2017-07-19T13:16:52.755Z,1680
2017-07-19T13:17:54.528Z,1656
2017-07-19T13:18:56.416Z,1640
2017-07-19T13:19:58.278Z,1612
2017-07-19T13:21:00.059Z,1588
2017-07-19T13:22:03.027Z,1564
2017-07-19T13:23:04.829Z,1536
2017-07-19T13:24:06.615Z,1532
2017-07-19T13:25:08.357Z,1516
2017-07-19T13:26:10.135Z,1496
2017-07-19T13:27:11.955Z,1504
2017-07-19T13:28:13.889Z,1484
2017-07-19T13:29:15.783Z,1472
2017-07-19T13:30:17.592Z,1464
2017-07-19T13:31:19.359Z,1468
2017-07-19T13:32:21.124Z,1480
2017-07-19T13:33:22.905Z,1476
2017-07-19T13:34:24.687Z,1444
2017-07-19T13:35:26.477Z,1412
2017-07-19T13:36:28.237Z,1400
2017-07-19T13:37:29.990Z,1372
2017-07-19T13:38:31.847Z,1356
2017-07-19T13:39:33.677Z,1352
2017-07-19T13:40:35.508Z,1324
2017-07-19T13:41:37.302Z,1312
2017-07-19T13:42:39.096Z,1284
2017-07-19T13:43:40.948Z,1304
2017-07-19T13:44:42.668Z,1300
2017-07-19T13:45:45.075Z,1288
2017-07-19T13:46:46.767Z,1300
2017-07-19T13:47:48.674Z,1328
2017-07-19T13:48:50.502Z,1376
2017-07-19T13:49:52.449Z,1416
2017-07-19T13:50:54.237Z,1484
2017-07-19T13:51:56.108Z,1556
2017-07-19T13:52:57.829Z,1640
2017-07-19T13:53:59.693Z,1724
2017-07-19T13:55:01.514Z,1788
2017-07-19T13:56:03.635Z,1824
2017-07-19T13:57:05.495Z,1860
2017-07-19T13:58:07.385Z,1904
2017-07-19T13:59:09.174Z,1952
2017-07-19T14:00:11.057Z,2012
2017-07-19T14:01:12.907Z,2072
2017-07-19T14:02:14.703Z,2136
2017-07-19T14:03:16.642Z,2224
2017-07-19T14:04:18.389Z,2328
2017-07-19T14:05:20.293Z,2432
2017-07-19T14:06:22.203Z,2520